createdAt,value
2022-08-23T00:01:21.217Z,100.00
2022-08-23T00:03:51.058Z,100.00
2022-08-23T00:06:17.943Z,100.00
2022-08-23T00:08:49.206Z,100.00
2022-08-23T00:11:32.285Z,100.00
2022-08-23T00:14:02.008Z,100.00
2022-08-23T00:16:28.918Z,100.00
2022-08-23T00:18:55.797Z,100.00
2022-08-23T00:21:23.346Z,100.00
2022-08-23T00:23:50.083Z,100.00
2022-08-23T00:26:17.965Z,100.00
2022-08-23T00:28:44.567Z,100.00
2022-08-23T00:31:11.201Z,100.00
2022-08-23T00:33:37.832Z,100.00
2022-08-23T00:36:04.547Z,100.00
2022-08-23T00:38:33.931Z,100.00
2022-08-23T00:41:01.497Z,100.00
2022-08-23T00:43:53.315Z,100.00
2022-08-23T00:46:47.454Z,100.00
2022-08-23T00:49:16.602Z,100.00
2022-08-23T00:51:57.598Z,100.00
2022-08-23T00:54:27.750Z,100.00
2022-08-23T00:56:57.786Z,100.00
2022-08-23T00:59:25.150Z,100.00
2022-08-23T01:01:52.595Z,100.00
2022-08-23T01:04:20.129Z,100.00
2022-08-23T01:06:59.595Z,100.00
2022-08-23T01:09:26.367Z,100.00
2022-08-23T01:12:04.591Z,100.00
2022-08-23T01:14:54.312Z,100.00
2022-08-23T01:17:30.823Z,100.00
2022-08-23T01:20:05.315Z,100.00
2022-08-23T01:22:38.256Z,100.00
2022-08-23T01:25:09.574Z,100.00
2022-08-23T01:27:38.445Z,100.00
2022-08-23T01:30:07.636Z,100.00
2022-08-23T01:32:40.949Z,100.00
2022-08-23T01:35:07.935Z,100.00
2022-08-23T01:37:34.831Z,100.00
2022-08-23T01:40:01.469Z,100.00
2022-08-23T01:42:28.301Z,100.00
2022-08-23T01:44:54.913Z,100.00
2022-08-23T01:47:21.498Z,100.00
2022-08-23T01:49:48.320Z,100.00
2022-08-23T01:52:15.508Z,100.00
2022-08-23T01:54:42.158Z,100.00
2022-08-23T01:57:11.027Z,100.00
2022-08-23T01:59:38.514Z,100.00
2022-08-23T02:02:05.303Z,100.00
2022-08-23T02:04:31.966Z,100.00
2022-08-23T02:06:58.564Z,100.00
2022-08-23T02:09:25.714Z,100.00
2022-08-23T02:11:52.446Z,100.00
2022-08-23T02:14:20.681Z,100.00
2022-08-23T02:17:02.870Z,100.00
2022-08-23T02:19:34.963Z,100.00
2022-08-23T02:22:03.551Z,100.00
2022-08-23T02:24:31.779Z,100.00
2022-08-23T02:27:02.148Z,100.00
2022-08-23T02:29:29.775Z,100.00
2022-08-23T02:31:58.402Z,100.00
2022-08-23T02:34:27.887Z,100.00
2022-08-23T02:36:54.891Z,100.00
2022-08-23T02:39:21.639Z,100.00
2022-08-23T02:41:48.310Z,100.00
2022-08-23T02:44:14.917Z,100.00
2022-08-23T02:46:42.315Z,100.00
2022-08-23T02:49:09.098Z,100.00
2022-08-23T02:51:36.132Z,100.00
2022-08-23T02:54:02.869Z,100.00
2022-08-23T02:56:29.526Z,100.00
2022-08-23T02:58:56.239Z,100.00
2022-08-23T03:01:28.777Z,100.00
2022-08-23T03:03:57.078Z,100.00
2022-08-23T03:06:24.561Z,100.00
2022-08-23T03:08:52.892Z,100.00
2022-08-23T03:11:21.950Z,100.00
2022-08-23T03:13:49.631Z,100.00
2022-08-23T03:16:17.317Z,100.00
2022-08-23T03:18:44.774Z,100.00
2022-08-23T03:21:12.260Z,100.00
2022-08-23T03:23:39.704Z,100.00
2022-08-23T03:26:09.264Z,100.00
2022-08-23T03:28:37.887Z,100.00
2022-08-23T03:31:06.177Z,100.00
2022-08-23T03:33:32.830Z,100.00
2022-08-23T03:36:04.790Z,100.00
2022-08-23T03:38:31.437Z,100.00
2022-08-23T03:40:58.446Z,100.00
2022-08-23T03:43:25.202Z,100.00
2022-08-23T03:45:52.273Z,100.00
2022-08-23T03:48:18.909Z,100.00
2022-08-23T03:50:45.994Z,100.00
2022-08-23T03:53:13.079Z,100.00
2022-08-23T03:55:42.704Z,100.00
2022-08-23T03:58:10.707Z,100.00
2022-08-23T04:00:38.424Z,100.00
2022-08-23T04:03:05.282Z,100.00
2022-08-23T04:05:31.942Z,100.00
2022-08-23T04:07:58.661Z,100.00
2022-08-23T04:10:25.347Z,100.00
2022-08-23T04:12:53.923Z,100.00
2022-08-23T04:15:20.750Z,100.00
2022-08-23T04:17:47.735Z,100.00
2022-08-23T04:20:14.542Z,100.00
2022-08-23T04:22:41.297Z,100.00
2022-08-23T04:25:12.281Z,100.00
2022-08-23T04:27:54.889Z,100.00
2022-08-23T04:30:21.760Z,100.00
2022-08-23T04:32:48.512Z,100.00
2022-08-23T04:35:15.922Z,100.00
2022-08-23T04:37:42.688Z,100.00
2022-08-23T04:40:29.332Z,100.00
2022-08-23T04:42:56.371Z,100.00
2022-08-23T04:45:23.176Z,100.00
2022-08-23T04:47:49.923Z,100.00
2022-08-23T04:50:17.046Z,100.00
2022-08-23T04:52:43.723Z,100.00
2022-08-23T04:55:10.755Z,100.00
2022-08-23T04:57:37.374Z,100.00
2022-08-23T05:00:04.933Z,100.00
2022-08-23T05:02:31.614Z,100.00
2022-08-23T05:04:58.221Z,100.00
2022-08-23T05:07:41.501Z,100.00
2022-08-23T05:10:12.910Z,100.00
2022-08-23T05:12:39.911Z,100.00
2022-08-23T05:15:08.026Z,100.00
2022-08-23T05:17:34.601Z,100.00
2022-08-23T05:20:01.654Z,100.00
2022-08-23T05:22:28.835Z,100.00
2022-08-23T05:24:55.439Z,100.00
2022-08-23T05:27:22.011Z,100.00
2022-08-23T05:29:48.809Z,100.00
2022-08-23T05:32:15.422Z,100.00
2022-08-23T05:34:42.353Z,100.00
2022-08-23T05:37:08.972Z,100.00
2022-08-23T05:39:36.772Z,100.00
2022-08-23T05:42:08.148Z,100.00
2022-08-23T05:44:36.251Z,100.00
2022-08-23T05:47:10.713Z,100.00
2022-08-23T05:49:38.746Z,100.00
2022-08-23T05:52:11.743Z,100.00
2022-08-23T05:54:39.123Z,100.00
2022-08-23T05:57:05.859Z,100.00
2022-08-23T05:59:33.029Z,100.00
2022-08-23T06:01:59.640Z,100.00
2022-08-23T06:04:26.228Z,100.00
2022-08-23T06:06:56.310Z,100.00
2022-08-23T06:09:22.998Z,100.00
2022-08-23T06:11:49.903Z,100.00
2022-08-23T06:14:16.975Z,100.00
2022-08-23T06:16:46.634Z,100.00
2022-08-23T06:19:14.631Z,100.00
2022-08-23T06:21:41.978Z,100.00
2022-08-23T06:24:09.283Z,100.00
2022-08-23T06:26:39.366Z,100.00
2022-08-23T06:29:11.405Z,100.00
2022-08-23T06:31:49.283Z,100.00
2022-08-23T06:34:18.624Z,100.00
2022-08-23T06:36:46.919Z,100.00
2022-08-23T06:39:15.875Z,100.00
2022-08-23T06:41:44.280Z,100.00
2022-08-23T06:44:10.911Z,100.00
2022-08-23T06:46:38.627Z,100.00
2022-08-23T06:49:06.672Z,100.00
2022-08-23T06:51:39.359Z,87.06
2022-08-23T06:54:09.044Z,81.38
2022-08-23T06:56:37.161Z,77.16
2022-08-23T06:59:06.423Z,78.86
2022-08-23T07:01:53.901Z,82.73
2022-08-23T07:04:25.415Z,88.46
2022-08-23T07:06:52.141Z,92.89
2022-08-23T07:09:18.911Z,88.90
2022-08-23T07:11:46.026Z,92.72
2022-08-23T07:14:15.158Z,94.95
2022-08-23T07:16:45.351Z,99.38
2022-08-23T07:19:12.692Z,100.00
2022-08-23T07:21:39.819Z,100.00
2022-08-23T07:24:07.040Z,100.00
2022-08-23T07:26:35.355Z,100.00
2022-08-23T07:29:06.695Z,100.00
2022-08-23T07:31:38.447Z,100.00
2022-08-23T07:34:06.291Z,99.21
2022-08-23T07:36:33.852Z,100.00
2022-08-23T07:39:01.079Z,100.00
2022-08-23T07:41:32.794Z,100.00
2022-08-23T07:44:02.396Z,100.00
2022-08-23T07:46:31.476Z,100.00
2022-08-23T07:48:59.517Z,100.00
2022-08-23T07:51:27.771Z,98.12
2022-08-23T07:53:54.641Z,96.24
2022-08-23T07:56:21.662Z,94.91
2022-08-23T07:58:48.564Z,92.98
2022-08-23T08:01:22.261Z,94.96
2022-08-23T08:03:53.194Z,94.77
2022-08-23T08:06:24.547Z,97.46
2022-08-23T08:08:52.157Z,95.57
2022-08-23T08:11:22.640Z,95.44
2022-08-23T08:13:50.885Z,90.68
2022-08-23T08:16:30.813Z,89.68
2022-08-23T08:18:59.647Z,87.13
2022-08-23T08:21:28.138Z,89.74
2022-08-23T08:23:55.906Z,89.22
2022-08-23T08:26:23.132Z,88.88
2022-08-23T08:28:49.888Z,84.22
2022-08-23T08:31:16.691Z,86.26
2022-08-23T08:33:44.513Z,92.24
2022-08-23T08:36:31.291Z,93.13
2022-08-23T08:39:00.764Z,90.16
2022-08-23T08:42:04.207Z,90.27
2022-08-23T08:44:42.371Z,88.76
2022-08-23T08:47:27.891Z,90.79
2022-08-23T08:50:06.416Z,87.68
2022-08-23T08:52:41.313Z,89.95
2022-08-23T08:55:10.917Z,89.97
2022-08-23T08:57:44.657Z,89.30
2022-08-23T09:00:27.296Z,88.36
2022-08-23T09:02:56.197Z,92.67
2022-08-23T09:05:31.692Z,93.32
2022-08-23T09:08:26.632Z,91.07
2022-08-23T09:11:31.621Z,92.60
2022-08-23T09:14:05.580Z,92.54
2022-08-23T09:16:52.709Z,88.21
2022-08-23T09:19:22.234Z,84.84
2022-08-23T09:21:56.912Z,84.23
2022-08-23T09:24:24.323Z,83.41
2022-08-23T09:26:53.783Z,82.00
2022-08-23T09:29:33.031Z,79.67
2022-08-23T09:32:06.735Z,77.93
2022-08-23T09:34:36.279Z,78.01
2022-08-23T09:37:11.739Z,79.29
2022-08-23T09:39:45.112Z,80.54
2022-08-23T09:42:37.149Z,80.34
2022-08-23T09:45:28.097Z,81.77
2022-08-23T09:47:55.525Z,81.34
2022-08-23T09:50:33.805Z,79.03
2022-08-23T09:53:04.855Z,78.30
2022-08-23T09:55:35.982Z,80.53
2022-08-23T09:58:07.331Z,81.75
2022-08-23T10:00:37.645Z,80.64
2022-08-23T10:03:27.441Z,82.35
2022-08-23T10:05:57.063Z,79.91
2022-08-23T10:08:28.311Z,79.95
2022-08-23T10:11:24.010Z,79.69
2022-08-23T10:13:51.591Z,77.66
2022-08-23T10:16:39.947Z,77.12
2022-08-23T10:19:23.849Z,75.92
2022-08-23T10:22:12.017Z,75.35
2022-08-23T10:24:47.553Z,72.94
2022-08-23T10:27:56.905Z,73.01
2022-08-23T10:30:36.622Z,72.22
2022-08-23T10:33:18.388Z,73.93
2022-08-23T10:36:13.072Z,75.76
2022-08-23T10:38:42.217Z,72.58
2022-08-23T10:41:27.940Z,69.64
2022-08-23T10:44:35.347Z,70.92
2022-08-23T10:47:11.214Z,72.03
2022-08-23T10:49:40.443Z,72.22
2022-08-23T10:52:12.943Z,72.27
2022-08-23T10:55:00.492Z,73.86
2022-08-23T10:57:36.179Z,71.74
2022-08-23T11:00:09.153Z,71.57
2022-08-23T11:02:57.443Z,73.96
2022-08-23T11:05:28.933Z,72.34
2022-08-23T11:08:08.258Z,72.10
2022-08-23T11:10:37.807Z,73.23
2022-08-23T11:13:26.557Z,70.89
2022-08-23T11:15:58.710Z,70.55
2022-08-23T11:18:45.306Z,70.96
2022-08-23T11:21:17.972Z,72.96
2022-08-23T11:24:15.651Z,69.64
2022-08-23T11:26:45.196Z,71.18
2022-08-23T11:29:20.967Z,70.66
2022-08-23T11:31:58.641Z,70.24
2022-08-23T11:34:35.576Z,71.24
2022-08-23T11:37:20.306Z,68.32
2022-08-23T11:39:59.273Z,67.87
2022-08-23T11:42:37.808Z,69.71
2022-08-23T11:45:22.114Z,67.25
2022-08-23T11:48:04.316Z,67.95
2022-08-23T11:51:26.517Z,68.26
2022-08-23T11:53:53.111Z,69.80
2022-08-23T11:56:46.258Z,68.65
2022-08-23T11:59:50.508Z,69.02
2022-08-23T12:02:38.623Z,66.84
2022-08-23T12:05:23.510Z,67.50
2022-08-23T12:08:08.205Z,68.43
2022-08-23T12:10:40.750Z,67.15
2022-08-23T12:13:19.738Z,65.61
2022-08-23T12:16:16.645Z,64.16
2022-08-23T12:18:53.221Z,64.01
2022-08-23T12:21:26.902Z,63.88
2022-08-23T12:24:01.225Z,65.77
2022-08-23T12:26:51.893Z,66.40
2022-08-23T12:29:37.753Z,67.79
2022-08-23T12:32:25.383Z,66.95
2022-08-23T12:35:05.016Z,65.96
2022-08-23T12:37:45.420Z,66.58
2022-08-23T12:40:15.923Z,65.81
2022-08-23T12:42:43.113Z,67.81
2022-08-23T12:45:26.195Z,67.52
2022-08-23T12:48:02.670Z,67.82
2022-08-23T12:50:36.402Z,68.55
2022-08-23T12:53:25.392Z,69.51
2022-08-23T12:55:59.092Z,66.35
2022-08-23T12:58:33.286Z,66.56
2022-08-23T13:01:04.272Z,67.16
2022-08-23T13:03:36.391Z,64.17
2022-08-23T13:06:08.310Z,65.14
2022-08-23T13:08:37.647Z,67.03
2022-08-23T13:11:08.824Z,66.37
2022-08-23T13:13:38.920Z,66.68
2022-08-23T13:16:30.600Z,66.63
2022-08-23T13:19:32.112Z,67.75
2022-08-23T13:22:20.303Z,67.82
2022-08-23T13:25:29.052Z,67.95
2022-08-23T13:28:26.869Z,66.80
2022-08-23T13:31:08.018Z,67.15
2022-08-23T13:33:35.076Z,67.40
2022-08-23T13:36:21.818Z,68.05
2022-08-23T13:38:49.089Z,68.76
2022-08-23T13:41:38.516Z,70.07
2022-08-23T13:44:08.418Z,70.08
2022-08-23T13:46:44.317Z,65.74
2022-08-23T13:49:16.507Z,66.91
2022-08-23T13:52:24.626Z,67.72
2022-08-23T13:54:51.242Z,68.14
2022-08-23T13:57:20.067Z,66.71
2022-08-23T13:59:52.149Z,68.11
2022-08-23T14:02:21.239Z,69.07
2022-08-23T14:04:48.447Z,69.76
2022-08-23T14:07:16.182Z,70.03
2022-08-23T14:09:43.062Z,70.34
2022-08-23T14:12:17.372Z,69.45
2022-08-23T14:14:45.694Z,67.03
2022-08-23T14:17:16.461Z,67.92
2022-08-23T14:22:34.768Z,67.06
2022-08-23T14:25:01.475Z,69.09
2022-08-23T14:27:28.196Z,68.27
2022-08-23T14:29:54.834Z,68.26
2022-08-23T14:32:21.864Z,68.15
2022-08-23T14:34:48.447Z,67.31
2022-08-23T14:38:18.105Z,67.89
2022-08-23T14:40:02.278Z,67.73
2022-08-23T14:42:28.918Z,66.02
2022-08-23T14:44:55.625Z,64.92
2022-08-23T14:47:22.254Z,65.64
2022-08-23T14:49:53.314Z,66.66
2022-08-23T14:52:21.314Z,64.80
2022-08-23T14:54:48.066Z,66.22
2022-08-23T14:57:14.792Z,65.04
2022-08-23T14:59:41.386Z,64.79
2022-08-23T15:02:11.879Z,64.40
2022-08-23T15:04:39.896Z,65.34
2022-08-23T15:07:17.624Z,64.47
2022-08-23T15:09:46.312Z,64.76
2022-08-23T15:14:59.585Z,64.77
2022-08-23T15:17:31.303Z,64.84
2022-08-23T15:19:58.761Z,63.21
2022-08-23T15:22:26.167Z,64.88
2022-08-23T15:24:53.099Z,64.45
2022-08-23T15:27:20.895Z,63.57
2022-08-23T15:29:47.516Z,61.74
2022-08-23T15:32:14.128Z,64.50
2022-08-23T15:34:48.898Z,66.11
2022-08-23T15:37:15.625Z,67.22
2022-08-23T15:39:42.606Z,68.39
2022-08-23T15:42:09.708Z,68.13
2022-08-23T15:44:36.559Z,69.37
2022-08-23T15:47:05.959Z,69.59
2022-08-23T15:49:36.493Z,71.32
2022-08-23T15:52:04.687Z,71.00
2022-08-23T15:54:31.929Z,71.46
2022-08-23T15:56:58.773Z,71.28
2022-08-23T15:59:25.728Z,70.39
2022-08-23T16:01:52.853Z,70.65
2022-08-23T16:04:19.488Z,70.93
2022-08-23T16:06:46.370Z,71.46
2022-08-23T16:09:20.877Z,71.49
2022-08-23T16:11:48.030Z,71.79
2022-08-23T16:14:14.642Z,73.12
2022-08-23T16:16:43.732Z,73.47
2022-08-23T16:19:10.377Z,73.61
2022-08-23T16:21:37.045Z,74.39
2022-08-23T16:24:04.427Z,76.11
2022-08-23T16:26:35.288Z,75.54
2022-08-23T16:29:07.100Z,75.65
2022-08-23T16:31:38.392Z,76.49
2022-08-23T16:34:10.773Z,76.61
2022-08-23T16:36:39.702Z,78.53
2022-08-23T16:39:07.273Z,77.58
2022-08-23T16:41:33.841Z,77.74
2022-08-23T16:44:00.627Z,78.51
2022-08-23T16:46:29.249Z,79.22
2022-08-23T16:48:55.956Z,79.87
2022-08-23T16:51:23.433Z,78.92
2022-08-23T16:54:01.597Z,79.08
2022-08-23T16:56:31.746Z,78.92
2022-08-23T16:58:58.996Z,79.67
2022-08-23T17:01:26.017Z,79.34
2022-08-23T17:03:52.745Z,79.41
2022-08-23T17:06:19.783Z,80.63
2022-08-23T17:08:46.686Z,80.96
2022-08-23T17:11:15.702Z,80.85
2022-08-23T17:13:42.670Z,81.66
2022-08-23T17:16:10.726Z,81.77
2022-08-23T17:18:38.637Z,81.36
2022-08-23T17:21:06.098Z,82.32
2022-08-23T17:23:32.875Z,82.20
2022-08-23T17:26:00.729Z,81.98
2022-08-23T17:28:28.145Z,83.57
2022-08-23T17:30:58.418Z,83.64
2022-08-23T17:33:25.083Z,85.70
2022-08-23T17:35:51.737Z,84.58
2022-08-23T17:38:18.535Z,82.65
2022-08-23T17:40:45.378Z,83.91
2022-08-23T17:43:13.051Z,84.67
2022-08-23T17:45:44.135Z,83.80
2022-08-23T17:48:11.438Z,86.48
2022-08-23T17:50:39.479Z,86.40
2022-08-23T17:53:06.398Z,86.10
2022-08-23T17:55:35.446Z,86.08
2022-08-23T17:58:03.752Z,88.53
2022-08-23T18:00:32.482Z,89.28
2022-08-23T18:02:59.668Z,89.33
2022-08-23T18:05:29.457Z,89.35
2022-08-23T18:07:56.024Z,88.65
2022-08-23T18:10:23.439Z,90.14
2022-08-23T18:12:50.022Z,91.13
2022-08-23T18:15:18.571Z,90.47
2022-08-23T18:17:45.254Z,91.05
2022-08-23T18:20:13.024Z,91.08
2022-08-23T18:22:40.045Z,91.99
2022-08-23T18:25:09.206Z,91.63
2022-08-23T18:27:55.198Z,92.79
2022-08-23T18:30:21.970Z,92.54
2022-08-23T18:32:48.650Z,93.00
2022-08-23T18:35:15.284Z,93.27
2022-08-23T18:37:42.307Z,93.21
2022-08-23T18:40:10.534Z,94.99
2022-08-23T18:42:37.667Z,94.77
2022-08-23T18:45:05.568Z,96.88
2022-08-23T18:47:32.928Z,96.17
2022-08-23T18:49:59.530Z,97.26
2022-08-23T18:52:27.615Z,97.79
2022-08-23T18:54:57.736Z,98.60
2022-08-23T18:57:24.573Z,98.35
2022-08-23T18:59:51.629Z,98.88
2022-08-23T19:02:18.491Z,99.32
2022-08-23T19:04:46.097Z,99.50
2022-08-23T19:07:12.960Z,99.63
2022-08-23T19:09:39.658Z,100.00
2022-08-23T19:12:06.626Z,100.00
2022-08-23T19:14:35.757Z,100.00
2022-08-23T19:17:07.957Z,99.24
2022-08-23T19:19:35.423Z,99.27
2022-08-23T19:22:03.502Z,100.00
2022-08-23T19:24:30.355Z,100.00
2022-08-23T19:26:57.000Z,100.00
2022-08-23T19:29:23.755Z,100.00
2022-08-23T19:31:50.639Z,100.00
2022-08-23T19:34:19.474Z,100.00
2022-08-23T19:36:51.274Z,100.00
2022-08-23T19:39:26.216Z,100.00
2022-08-23T19:41:52.933Z,100.00
2022-08-23T19:44:19.639Z,100.00
2022-08-23T19:46:46.321Z,100.00
2022-08-23T19:49:13.510Z,100.00
2022-08-23T19:51:40.701Z,100.00
2022-08-23T19:54:11.432Z,100.00
2022-08-23T19:56:46.946Z,100.00
2022-08-23T19:59:18.039Z,100.00
2022-08-23T20:01:45.292Z,100.00
2022-08-23T20:04:12.939Z,100.00
2022-08-23T20:06:40.678Z,100.00
2022-08-23T20:09:08.528Z,100.00
2022-08-23T20:11:35.351Z,100.00
2022-08-23T20:14:03.290Z,100.00
2022-08-23T20:16:32.711Z,100.00
2022-08-23T20:19:00.553Z,100.00
2022-08-23T20:21:28.191Z,100.00
2022-08-23T20:24:01.526Z,100.00
2022-08-23T20:26:40.497Z,100.00
2022-08-23T20:29:10.276Z,100.00
2022-08-23T20:31:39.733Z,100.00
2022-08-23T20:34:09.363Z,100.00
2022-08-23T20:36:36.071Z,100.00
2022-08-23T20:39:03.767Z,100.00
2022-08-23T20:41:35.568Z,100.00
2022-08-23T20:44:02.768Z,100.00
2022-08-23T20:46:30.000Z,100.00
2022-08-23T20:48:57.713Z,100.00
2022-08-23T20:51:25.611Z,100.00
2022-08-23T20:53:52.310Z,100.00
2022-08-23T20:56:20.515Z,100.00
2022-08-23T20:58:47.913Z,100.00
2022-08-23T21:01:16.474Z,100.00
2022-08-23T21:03:43.572Z,100.00
2022-08-23T21:06:15.659Z,100.00
2022-08-23T21:08:48.083Z,100.00
2022-08-23T21:11:15.323Z,100.00
2022-08-23T21:13:44.160Z,100.00
2022-08-23T21:16:15.369Z,100.00
2022-08-23T21:18:42.440Z,100.00
2022-08-23T21:21:09.716Z,100.00
2022-08-23T21:23:36.984Z,100.00
2022-08-23T21:26:05.329Z,100.00
2022-08-23T21:28:32.291Z,100.00
2022-08-23T21:31:13.224Z,100.00
2022-08-23T21:33:40.678Z,100.00
2022-08-23T21:36:08.759Z,100.00
2022-08-23T21:38:36.169Z,100.00
2022-08-23T21:41:05.675Z,100.00
2022-08-23T21:43:33.600Z,100.00
2022-08-23T21:46:00.380Z,100.00
2022-08-23T21:48:27.014Z,100.00
2022-08-23T21:50:53.763Z,100.00
2022-08-23T21:53:20.354Z,100.00
2022-08-23T21:55:47.440Z,100.00
2022-08-23T21:58:14.186Z,100.00
2022-08-23T22:00:41.335Z,100.00
2022-08-23T22:03:09.182Z,100.00
2022-08-23T22:05:44.563Z,100.00
2022-08-23T22:08:14.352Z,100.00
2022-08-23T22:10:44.837Z,100.00
2022-08-23T22:13:25.884Z,100.00
2022-08-23T22:15:52.601Z,100.00
2022-08-23T22:18:19.600Z,100.00
2022-08-23T22:20:46.560Z,100.00
2022-08-23T22:23:13.248Z,100.00
2022-08-23T22:25:39.932Z,100.00
2022-08-23T22:28:06.851Z,100.00
2022-08-23T22:30:33.535Z,100.00
2022-08-23T22:33:00.185Z,100.00
2022-08-23T22:35:26.841Z,100.00
2022-08-23T22:38:12.932Z,100.00
2022-08-23T22:40:40.740Z,100.00
2022-08-23T22:43:07.449Z,100.00
2022-08-23T22:45:34.243Z,100.00
2022-08-23T22:48:01.365Z,100.00
2022-08-23T22:50:28.133Z,100.00
2022-08-23T22:52:54.711Z,100.00
2022-08-23T22:55:21.605Z,100.00
2022-08-23T22:57:48.202Z,100.00
2022-08-23T23:00:16.221Z,100.00
2022-08-23T23:02:43.056Z,100.00
2022-08-23T23:05:09.638Z,100.00
2022-08-23T23:08:14.830Z,100.00
2022-08-23T23:10:41.836Z,100.00
2022-08-23T23:13:08.428Z,100.00
2022-08-23T23:15:35.074Z,100.00
2022-08-23T23:18:01.774Z,100.00
2022-08-23T23:20:39.283Z,100.00
2022-08-23T23:23:08.038Z,100.00
2022-08-23T23:25:36.698Z,100.00
2022-08-23T23:28:05.272Z,100.00
2022-08-23T23:30:32.571Z,100.00
2022-08-23T23:32:59.299Z,100.00
2022-08-23T23:35:28.240Z,100.00
2022-08-23T23:37:56.248Z,100.00
2022-08-23T23:40:24.434Z,100.00
2022-08-23T23:42:51.966Z,100.00
2022-08-23T23:45:18.911Z,100.00
2022-08-23T23:47:46.274Z,100.00
2022-08-23T23:50:14.148Z,100.00
2022-08-23T23:52:41.223Z,100.00
2022-08-23T23:55:10.859Z,100.00
2022-08-23T23:57:37.746Z,100.00
